createdAt,value
2022-11-22T00:03:56.658Z,83.99
2022-11-22T00:08:56.600Z,84.13
2022-11-22T00:14:04.354Z,82.89
2022-11-22T00:18:56.574Z,83.26
2022-11-22T00:23:56.335Z,83.26
2022-11-22T00:28:56.301Z,82.84
2022-11-22T00:33:56.231Z,83.37
2022-11-22T00:38:56.094Z,83.99
2022-11-22T00:43:56.073Z,83.47
2022-11-22T00:48:55.988Z,86.58
2022-11-22T00:53:58.954Z,86.88
2022-11-22T00:59:03.689Z,85.21
2022-11-22T01:04:03.329Z,82.39
2022-11-22T01:09:03.239Z,84.03
2022-11-22T01:13:55.653Z,83.90
2022-11-22T01:18:55.731Z,84.23
2022-11-22T01:23:55.624Z,83.34
2022-11-22T01:28:55.780Z,83.37
2022-11-22T01:33:55.589Z,85.56
2022-11-22T01:38:55.479Z,84.86
2022-11-22T01:43:55.322Z,84.82
2022-11-22T01:48:55.279Z,83.33
2022-11-22T01:53:58.209Z,83.22
2022-11-22T01:58:55.325Z,84.23
2022-11-22T02:03:55.338Z,85.13
2022-11-22T02:08:55.083Z,83.89
2022-11-22T02:13:54.966Z,83.84
2022-11-22T02:18:54.922Z,85.78
2022-11-22T02:24:03.099Z,83.87
2022-11-22T02:28:54.759Z,83.98
2022-11-22T02:33:58.821Z,83.98
2022-11-22T02:38:55.628Z,83.46
2022-11-22T02:43:54.535Z,82.42
2022-11-22T02:48:54.594Z,82.32
2022-11-22T02:55:08.098Z,84.20
2022-11-22T03:00:07.989Z,83.81
2022-11-22T03:05:07.984Z,83.70
2022-11-22T03:10:15.753Z,82.65
2022-11-22T03:15:07.811Z,84.19
2022-11-22T03:20:07.741Z,83.77
2022-11-22T03:25:07.599Z,83.42
2022-11-22T03:30:07.826Z,85.39
2022-11-22T03:35:07.639Z,83.59
2022-11-22T03:40:07.704Z,82.70
2022-11-22T03:45:10.905Z,83.07
2022-11-22T03:50:07.394Z,83.98
2022-11-22T03:55:07.459Z,83.28
2022-11-22T04:00:07.291Z,82.62
2022-11-22T04:05:07.332Z,82.62
2022-11-22T04:10:07.013Z,82.86
2022-11-22T04:15:07.089Z,82.24
2022-11-22T04:20:06.981Z,85.41
2022-11-22T04:25:06.909Z,85.93
2022-11-22T04:30:06.929Z,86.09
2022-11-22T04:35:06.920Z,83.38
2022-11-22T04:40:06.749Z,83.69
2022-11-22T04:45:09.826Z,84.78
2022-11-22T04:50:06.544Z,87.84
2022-11-22T04:55:06.585Z,86.61
2022-11-22T05:00:06.623Z,84.39
2022-11-22T05:05:06.361Z,83.59
2022-11-22T05:10:06.712Z,83.91
2022-11-22T05:15:06.550Z,85.12
2022-11-22T05:20:06.245Z,82.39
2022-11-22T05:25:06.158Z,84.77
2022-11-22T05:30:06.179Z,84.19
2022-11-22T05:35:06.124Z,84.53
2022-11-22T05:40:05.870Z,85.57
2022-11-22T05:46:27.166Z,85.22
2022-11-22T05:52:43.810Z,84.91
2022-11-22T05:57:43.610Z,86.02
2022-11-22T06:04:01.490Z,84.21
2022-11-22T06:09:01.440Z,82.93
2022-11-22T06:14:01.390Z,84.42
2022-11-22T06:19:01.435Z,82.49
2022-11-22T06:24:01.349Z,84.21
2022-11-22T06:29:01.060Z,82.62
2022-11-22T06:34:01.083Z,82.14
2022-11-22T06:39:01.158Z,83.42
2022-11-22T06:44:08.553Z,82.58
2022-11-22T06:49:00.880Z,83.80
2022-11-22T06:54:04.035Z,85.12
2022-11-22T06:59:00.722Z,84.67
2022-11-22T07:04:00.659Z,82.72
2022-11-22T07:09:00.597Z,82.72
2022-11-22T07:14:07.192Z,82.93
2022-11-22T07:19:01.462Z,82.89
2022-11-22T07:24:00.415Z,82.89
2022-11-22T07:29:00.325Z,82.68
2022-11-22T07:34:01.917Z,83.73
2022-11-22T08:02:56.804Z,83.44
2022-11-22T08:16:05.596Z,84.82
2022-11-22T08:21:02.515Z,83.19
2022-11-22T08:26:02.659Z,82.60
2022-11-22T08:32:41.944Z,81.60
2022-11-22T08:37:42.295Z,81.56
2022-11-22T08:42:41.709Z,81.87
2022-11-22T08:47:41.700Z,82.46
2022-11-22T08:52:41.552Z,83.09
2022-11-22T08:57:41.569Z,84.12
2022-11-22T09:02:41.495Z,82.70
2022-11-22T09:12:42.401Z,79.83
2022-11-22T09:17:41.324Z,80.97
2022-11-22T09:32:17.988Z,80.42
2022-11-22T09:37:17.732Z,79.52
2022-11-22T09:42:17.807Z,78.17
2022-11-22T09:47:17.607Z,78.17
2022-11-22T09:52:17.631Z,79.44
2022-11-22T09:57:17.568Z,79.03
2022-11-22T10:03:34.918Z,77.90
2022-11-22T10:08:34.903Z,78.21
2022-11-22T10:13:34.974Z,79.14
2022-11-22T10:18:34.882Z,79.14
2022-11-22T10:23:34.844Z,78.48
2022-11-22T10:28:34.622Z,78.58
2022-11-22T10:33:34.738Z,78.44
2022-11-22T10:38:34.411Z,77.38
2022-11-22T10:43:34.475Z,76.97
2022-11-22T10:48:34.289Z,77.58
2022-11-22T10:53:37.293Z,78.24
2022-11-22T10:58:34.257Z,79.47
2022-11-22T11:03:34.164Z,78.27
2022-11-22T11:09:12.483Z,77.20
2022-11-22T11:13:35.140Z,76.28
2022-11-22T11:18:33.964Z,75.28
2022-11-22T11:23:33.889Z,75.04
2022-11-22T11:28:33.895Z,75.04
2022-11-22T11:33:33.749Z,74.53
2022-11-22T11:38:33.800Z,74.87
2022-11-22T11:43:34.554Z,76.96
2022-11-22T11:48:41.535Z,73.71
2022-11-22T11:53:45.009Z,73.57
2022-11-22T11:58:41.059Z,74.73
2022-11-22T12:03:33.394Z,74.94
2022-11-22T12:08:33.365Z,74.15
2022-11-22T12:14:04.696Z,73.47
2022-11-22T12:18:34.340Z,74.84
2022-11-22T12:23:33.422Z,74.32
2022-11-22T12:28:33.040Z,75.08
2022-11-22T12:33:32.991Z,74.46
2022-11-22T12:38:32.916Z,74.22
2022-11-22T12:43:32.868Z,74.36
2022-11-22T12:48:33.017Z,73.71
2022-11-22T12:53:35.825Z,73.47
2022-11-22T12:58:32.639Z,74.26
2022-11-22T13:03:32.710Z,73.64
2022-11-22T13:08:32.519Z,74.32
2022-11-22T13:13:32.560Z,74.22
2022-11-22T13:18:32.571Z,74.29
2022-11-22T13:23:32.376Z,73.91
2022-11-22T13:28:32.185Z,74.12
2022-11-22T13:33:32.337Z,75.49
2022-11-22T13:38:32.105Z,75.45
2022-11-22T13:43:32.100Z,74.43
2022-11-22T13:48:31.919Z,74.46
2022-11-22T13:53:34.941Z,73.64
2022-11-22T13:58:31.829Z,74.22
2022-11-22T14:03:32.102Z,75.38
2022-11-22T14:08:31.721Z,74.94
2022-11-22T14:13:31.721Z,73.78
2022-11-22T14:18:31.543Z,73.61
2022-11-22T14:23:32.035Z,74.36
2022-11-22T14:28:31.429Z,76.04
2022-11-22T14:33:31.462Z,76.07
2022-11-22T14:38:31.289Z,75.83
2022-11-22T14:43:31.484Z,76.90
2022-11-22T14:48:31.534Z,78.51
2022-11-22T14:53:34.169Z,78.03
2022-11-22T14:58:31.039Z,81.20
2022-11-22T15:03:31.012Z,79.44
2022-11-22T15:09:18.393Z,79.86
2022-11-22T15:13:31.890Z,82.20
2022-11-22T15:58:31.407Z,85.26
2022-11-22T16:03:30.315Z,84.78
2022-11-22T16:08:32.803Z,85.61
2022-11-22T16:13:30.219Z,85.24
2022-11-22T16:18:29.999Z,85.69
2022-11-22T16:23:30.226Z,86.87
2022-11-22T16:28:29.866Z,85.79
2022-11-22T16:33:30.864Z,85.69
2022-11-22T16:38:30.699Z,85.27
2022-11-22T16:43:29.890Z,86.72
2022-11-22T16:48:32.306Z,85.96
2022-11-22T16:53:32.888Z,86.21
2022-11-22T16:58:29.514Z,87.18
2022-11-22T17:03:29.602Z,86.04
2022-11-22T17:08:29.359Z,85.73
2022-11-22T17:13:29.323Z,86.18
2022-11-22T17:18:29.280Z,86.55
2022-11-22T17:23:29.249Z,85.42
2022-11-22T17:28:29.169Z,86.83
2022-11-22T17:33:29.089Z,84.92
2022-11-22T17:38:29.213Z,84.48
2022-11-22T17:43:29.033Z,85.04
2022-11-22T17:48:37.023Z,84.55
2022-11-22T17:53:40.091Z,83.41
2022-11-22T17:59:47.431Z,84.55
2022-11-22T18:04:46.303Z,86.49
2022-11-22T18:09:46.369Z,86.45
2022-11-22T18:14:46.363Z,86.72
2022-11-22T18:19:46.218Z,85.89
2022-11-22T18:24:46.089Z,85.65
2022-11-22T18:29:45.902Z,86.31
2022-11-22T18:34:46.054Z,84.27
2022-11-22T18:39:45.793Z,82.92
2022-11-22T18:44:45.884Z,83.85
2022-11-22T18:49:48.974Z,82.86
2022-11-22T18:54:45.688Z,85.42
2022-11-22T18:59:45.581Z,83.00
2022-11-22T19:04:45.743Z,86.26
2022-11-22T19:09:45.495Z,86.02
2022-11-22T19:14:45.316Z,86.60
2022-11-22T19:19:45.274Z,83.59
2022-11-22T19:24:47.311Z,84.00
2022-11-22T19:29:45.361Z,86.86
2022-11-22T19:34:45.144Z,85.12
2022-11-22T19:39:45.088Z,84.00
2022-11-22T19:44:44.943Z,86.09
2022-11-22T19:49:47.949Z,86.96
2022-11-22T19:54:44.885Z,88.04
2022-11-22T19:59:44.908Z,86.26
2022-11-22T20:04:52.875Z,87.43
2022-11-22T20:09:44.934Z,87.26
2022-11-22T20:14:44.654Z,87.43
2022-11-22T20:19:44.495Z,84.13
2022-11-22T20:24:44.449Z,82.37
2022-11-22T20:29:44.475Z,82.10
2022-11-22T20:34:44.315Z,86.26
2022-11-22T20:39:44.212Z,88.09
2022-11-22T20:44:44.199Z,83.93
2022-11-22T20:49:47.213Z,82.76
2022-11-22T20:54:52.215Z,82.41
2022-11-22T20:59:51.621Z,82.72
2022-11-22T21:04:51.974Z,80.99
2022-11-22T21:09:51.489Z,81.51
2022-11-22T21:14:53.813Z,82.55
2022-11-22T21:19:43.780Z,83.04
2022-11-22T21:24:43.994Z,83.81
2022-11-22T21:29:44.574Z,84.64
2022-11-22T21:34:43.819Z,85.36
2022-11-22T21:39:43.487Z,88.60
2022-11-22T21:44:43.467Z,87.82
2022-11-22T21:49:46.565Z,86.74
2022-11-22T21:54:43.253Z,85.04
2022-11-22T21:59:43.341Z,84.34
2022-11-22T22:04:43.257Z,83.20
2022-11-22T22:09:43.447Z,83.83
2022-11-22T22:14:43.127Z,83.16
2022-11-22T22:19:43.019Z,82.58
2022-11-22T22:24:42.939Z,84.41
2022-11-22T22:29:43.004Z,84.23
2022-11-22T22:34:42.860Z,85.50
2022-11-22T22:39:42.771Z,82.53
2022-11-22T22:44:42.776Z,82.43
2022-11-22T22:49:45.644Z,82.67
2022-11-22T22:54:42.711Z,83.02
2022-11-22T22:59:42.624Z,81.78
2022-11-22T23:04:42.384Z,84.65
2022-11-22T23:09:42.403Z,85.92
2022-11-22T23:14:42.342Z,83.29
2022-11-22T23:19:43.079Z,83.64
2022-11-22T23:24:42.110Z,83.53
2022-11-22T23:29:49.554Z,82.97
2022-11-22T23:34:50.353Z,80.87
2022-11-22T23:39:49.503Z,80.76
2022-11-22T23:44:41.951Z,81.52
2022-11-22T23:49:44.998Z,81.25
2022-11-22T23:54:41.815Z,83.33
2022-11-22T23:59:41.753Z,86.15
